sensor_id;sensor_type;location;lat;lon;timestamp;temperature;humidity
9816;DHT22;4947;44.526;11.360;2023-03-14T00:02:02;9.50;99.90
9816;DHT22;4947;44.526;11.360;2023-03-14T00:04:31;9.50;99.90
9816;DHT22;4947;44.526;11.360;2023-03-14T00:07:00;9.40;99.90
9816;DHT22;4947;44.526;11.360;2023-03-14T00:09:28;9.40;99.90
9816;DHT22;4947;44.526;11.360;2023-03-14T00:11:56;9.40;99.90
9816;DHT22;4947;44.526;11.360;2023-03-14T00:14:24;9.30;99.90
9816;DHT22;4947;44.526;11.360;2023-03-14T00:16:52;9.30;99.90
9816;DHT22;4947;44.526;11.360;2023-03-14T00:19:19;9.30;99.90
9816;DHT22;4947;44.526;11.360;2023-03-14T00:21:47;9.30;99.90
9816;DHT22;4947;44.526;11.360;2023-03-14T00:24:16;9.30;99.90
9816;DHT22;4947;44.526;11.360;2023-03-14T00:26:44;9.20;99.90
9816;DHT22;4947;44.526;11.360;2023-03-14T00:29:12;9.20;99.90
9816;DHT22;4947;44.526;11.360;2023-03-14T00:31:39;9.20;99.90
9816;DHT22;4947;44.526;11.360;2023-03-14T00:34:06;9.20;99.90
9816;DHT22;4947;44.526;11.360;2023-03-14T00:36:37;9.20;99.90
9816;DHT22;4947;44.526;11.360;2023-03-14T00:39:04;9.30;99.90
9816;DHT22;4947;44.526;11.360;2023-03-14T00:41:33;9.20;99.90
9816;DHT22;4947;44.526;11.360;2023-03-14T00:44:01;9.20;99.90
9816;DHT22;4947;44.526;11.360;2023-03-14T00:46:28;9.20;99.90
9816;DHT22;4947;44.526;11.360;2023-03-14T00:48:56;9.30;99.90
9816;DHT22;4947;44.526;11.360;2023-03-14T00:51:23;9.30;99.90
9816;DHT22;4947;44.526;11.360;2023-03-14T00:53:51;9.30;99.90
9816;DHT22;4947;44.526;11.360;2023-03-14T00:56:18;9.40;99.90
9816;DHT22;4947;44.526;11.360;2023-03-14T00:58:47;9.40;99.90
9816;DHT22;4947;44.526;11.360;2023-03-14T01:01:17;9.40;99.90
9816;DHT22;4947;44.526;11.360;2023-03-14T01:03:45;9.40;99.90
9816;DHT22;4947;44.526;11.360;2023-03-14T01:06:14;9.40;99.90
9816;DHT22;4947;44.526;11.360;2023-03-14T01:08:43;9.50;99.90
9816;DHT22;4947;44.526;11.360;2023-03-14T01:11:12;9.50;99.90
9816;DHT22;4947;44.526;11.360;2023-03-14T01:13:40;9.50;99.90
9816;DHT22;4947;44.526;11.360;2023-03-14T01:16:11;9.60;99.90
9816;DHT22;4947;44.526;11.360;2023-03-14T01:18:45;9.70;99.90
9816;DHT22;4947;44.526;11.360;2023-03-14T01:21:14;10.40;99.90
9816;DHT22;4947;44.526;11.360;2023-03-14T01:23:43;11.30;91.10
9816;DHT22;4947;44.526;11.360;2023-03-14T01:26:13;12.50;18.00
9816;DHT22;4947;44.526;11.360;2023-03-14T01:28:41;13.00;1.00
9816;DHT22;4947;44.526;11.360;2023-03-14T01:31:11;13.50;1.00
9816;DHT22;4947;44.526;11.360;2023-03-14T01:33:40;13.60;1.00
9816;DHT22;4947;44.526;11.360;2023-03-14T01:36:09;13.60;1.00
9816;DHT22;4947;44.526;11.360;2023-03-14T01:38:38;13.70;1.00
9816;DHT22;4947;44.526;11.360;2023-03-14T01:41:07;13.90;1.00
9816;DHT22;4947;44.526;11.360;2023-03-14T01:43:35;13.90;1.00
9816;DHT22;4947;44.526;11.360;2023-03-14T01:46:24;14.00;1.00
9816;DHT22;4947;44.526;11.360;2023-03-14T01:48:57;14.00;1.00
9816;DHT22;4947;44.526;11.360;2023-03-14T01:51:30;13.90;1.00
9816;DHT22;4947;44.526;11.360;2023-03-14T01:54:03;14.00;1.00
9816;DHT22;4947;44.526;11.360;2023-03-14T01:56:32;13.80;1.00
9816;DHT22;4947;44.526;11.360;2023-03-14T01:59:01;13.90;1.00
9816;DHT22;4947;44.526;11.360;2023-03-14T02:01:32;13.90;1.00
9816;DHT22;4947;44.526;11.360;2023-03-14T02:04:02;13.80;1.00
9816;DHT22;4947;44.526;11.360;2023-03-14T02:06:38;13.70;1.00
9816;DHT22;4947;44.526;11.360;2023-03-14T02:09:07;13.50;1.00
9816;DHT22;4947;44.526;11.360;2023-03-14T02:11:35;13.40;1.00
9816;DHT22;4947;44.526;11.360;2023-03-14T02:14:03;13.30;1.00
9816;DHT22;4947;44.526;11.360;2023-03-14T02:16:34;13.20;1.00
9816;DHT22;4947;44.526;11.360;2023-03-14T02:19:03;13.20;1.00
9816;DHT22;4947;44.526;11.360;2023-03-14T02:21:42;13.10;1.00
9816;DHT22;4947;44.526;11.360;2023-03-14T02:24:18;13.10;1.00
9816;DHT22;4947;44.526;11.360;2023-03-14T02:27:08;13.00;1.00
9816;DHT22;4947;44.526;11.360;2023-03-14T02:29:39;13.00;1.00
9816;DHT22;4947;44.526;11.360;2023-03-14T02:32:08;12.90;1.00
9816;DHT22;4947;44.526;11.360;2023-03-14T02:34:36;12.80;1.00
9816;DHT22;4947;44.526;11.360;2023-03-14T02:37:04;12.80;1.00
9816;DHT22;4947;44.526;11.360;2023-03-14T02:39:36;12.80;1.00
9816;DHT22;4947;44.526;11.360;2023-03-14T02:42:04;12.70;1.00
9816;DHT22;4947;44.526;11.360;2023-03-14T02:44:33;12.70;1.00
9816;DHT22;4947;44.526;11.360;2023-03-14T02:47:01;12.80;1.00
9816;DHT22;4947;44.526;11.360;2023-03-14T02:49:34;12.70;1.00
9816;DHT22;4947;44.526;11.360;2023-03-14T02:52:01;12.70;1.00
9816;DHT22;4947;44.526;11.360;2023-03-14T02:54:29;12.80;1.00
9816;DHT22;4947;44.526;11.360;2023-03-14T02:56:57;12.80;1.00
9816;DHT22;4947;44.526;11.360;2023-03-14T02:59:25;12.80;1.00
9816;DHT22;4947;44.526;11.360;2023-03-14T03:01:55;12.80;1.00
9816;DHT22;4947;44.526;11.360;2023-03-14T03:04:23;12.90;1.00
9816;DHT22;4947;44.526;11.360;2023-03-14T03:06:50;12.90;1.00
9816;DHT22;4947;44.526;11.360;2023-03-14T03:09:18;12.90;1.00
9816;DHT22;4947;44.526;11.360;2023-03-14T03:11:46;12.80;1.00
9816;DHT22;4947;44.526;11.360;2023-03-14T03:14:13;12.80;1.00
9816;DHT22;4947;44.526;11.360;2023-03-14T03:16:41;12.80;1.00
9816;DHT22;4947;44.526;11.360;2023-03-14T03:19:11;12.70;1.00
9816;DHT22;4947;44.526;11.360;2023-03-14T03:21:39;12.70;1.00
9816;DHT22;4947;44.526;11.360;2023-03-14T03:24:07;12.90;1.00
9816;DHT22;4947;44.526;11.360;2023-03-14T03:26:35;12.90;1.00
9816;DHT22;4947;44.526;11.360;2023-03-14T03:29:03;12.90;1.00
9816;DHT22;4947;44.526;11.360;2023-03-14T03:31:30;12.80;1.00
9816;DHT22;4947;44.526;11.360;2023-03-14T03:33:58;12.90;1.00
9816;DHT22;4947;44.526;11.360;2023-03-14T03:36:28;12.90;1.00
9816;DHT22;4947;44.526;11.360;2023-03-14T03:38:55;12.90;1.00
9816;DHT22;4947;44.526;11.360;2023-03-14T03:41:23;12.90;1.00
9816;DHT22;4947;44.526;11.360;2023-03-14T03:43:51;12.90;1.00
9816;DHT22;4947;44.526;11.360;2023-03-14T03:46:19;13.00;1.00
9816;DHT22;4947;44.526;11.360;2023-03-14T03:48:47;12.90;1.00
9816;DHT22;4947;44.526;11.360;2023-03-14T03:51:15;12.90;1.00
9816;DHT22;4947;44.526;11.360;2023-03-14T03:53:45;12.90;1.00
9816;DHT22;4947;44.526;11.360;2023-03-14T03:56:13;12.90;1.00
9816;DHT22;4947;44.526;11.360;2023-03-14T03:58:40;12.90;1.00
9816;DHT22;4947;44.526;11.360;2023-03-14T04:01:08;13.00;1.00
9816;DHT22;4947;44.526;11.360;2023-03-14T04:03:36;13.00;1.00
9816;DHT22;4947;44.526;11.360;2023-03-14T04:06:06;13.00;1.00
9816;DHT22;4947;44.526;11.360;2023-03-14T04:08:34;13.00;1.00
9816;DHT22;4947;44.526;11.360;2023-03-14T04:11:04;13.00;1.00
9816;DHT22;4947;44.526;11.360;2023-03-14T04:13:31;13.00;1.00
9816;DHT22;4947;44.526;11.360;2023-03-14T04:15:59;13.00;1.00
9816;DHT22;4947;44.526;11.360;2023-03-14T04:18:28;12.90;1.00
9816;DHT22;4947;44.526;11.360;2023-03-14T04:20:57;12.80;1.00
9816;DHT22;4947;44.526;11.360;2023-03-14T04:23:25;12.60;1.00
9816;DHT22;4947;44.526;11.360;2023-03-14T04:25:53;12.50;1.00
9816;DHT22;4947;44.526;11.360;2023-03-14T04:28:22;12.40;1.00
9816;DHT22;4947;44.526;11.360;2023-03-14T04:30:49;12.30;1.00
9816;DHT22;4947;44.526;11.360;2023-03-14T04:33:17;12.30;1.00
9816;DHT22;4947;44.526;11.360;2023-03-14T04:35:45;12.20;1.00
9816;DHT22;4947;44.526;11.360;2023-03-14T04:38:12;12.30;1.00
9816;DHT22;4947;44.526;11.360;2023-03-14T04:40:41;12.50;1.00
9816;DHT22;4947;44.526;11.360;2023-03-14T04:43:09;12.60;1.00
9816;DHT22;4947;44.526;11.360;2023-03-14T04:45:41;12.60;1.00
9816;DHT22;4947;44.526;11.360;2023-03-14T04:48:09;12.50;1.00
9816;DHT22;4947;44.526;11.360;2023-03-14T04:50:36;12.70;1.00
9816;DHT22;4947;44.526;11.360;2023-03-14T04:53:04;12.90;1.00
9816;DHT22;4947;44.526;11.360;2023-03-14T04:55:32;13.00;1.00
9816;DHT22;4947;44.526;11.360;2023-03-14T04:58:00;13.10;99.90
9816;DHT22;4947;44.526;11.360;2023-03-14T05:00:28;13.10;99.90
9816;DHT22;4947;44.526;11.360;2023-03-14T05:02:57;13.10;99.90
9816;DHT22;4947;44.526;11.360;2023-03-14T05:05:24;13.10;1.00
9816;DHT22;4947;44.526;11.360;2023-03-14T05:07:52;13.00;1.00
9816;DHT22;4947;44.526;11.360;2023-03-14T05:10:20;12.90;1.00
9816;DHT22;4947;44.526;11.360;2023-03-14T05:12:47;12.80;1.00
9816;DHT22;4947;44.526;11.360;2023-03-14T05:15:15;12.90;1.00
9816;DHT22;4947;44.526;11.360;2023-03-14T05:17:42;12.90;1.00
9816;DHT22;4947;44.526;11.360;2023-03-14T05:20:12;12.80;1.00
9816;DHT22;4947;44.526;11.360;2023-03-14T05:22:41;12.80;1.00
9816;DHT22;4947;44.526;11.360;2023-03-14T05:25:09;12.70;1.00
9816;DHT22;4947;44.526;11.360;2023-03-14T05:27:36;12.60;1.00
9816;DHT22;4947;44.526;11.360;2023-03-14T05:30:05;12.50;1.00
9816;DHT22;4947;44.526;11.360;2023-03-14T05:32:33;12.80;99.90
9816;DHT22;4947;44.526;11.360;2023-03-14T05:35:01;13.50;99.90
9816;DHT22;4947;44.526;11.360;2023-03-14T05:37:30;13.90;59.80
9816;DHT22;4947;44.526;11.360;2023-03-14T05:39:58;13.80;95.90
9816;DHT22;4947;44.526;11.360;2023-03-14T05:42:25;13.70;99.90
9816;DHT22;4947;44.526;11.360;2023-03-14T05:44:53;13.60;99.90
9816;DHT22;4947;44.526;11.360;2023-03-14T05:47:20;13.40;99.90
9816;DHT22;4947;44.526;11.360;2023-03-14T05:49:51;13.20;99.90
9816;DHT22;4947;44.526;11.360;2023-03-14T05:52:18;13.00;99.90
9816;DHT22;4947;44.526;11.360;2023-03-14T05:54:48;12.90;1.00
9816;DHT22;4947;44.526;11.360;2023-03-14T05:57:16;12.80;1.00
9816;DHT22;4947;44.526;11.360;2023-03-14T05:59:43;12.90;1.00
9816;DHT22;4947;44.526;11.360;2023-03-14T06:02:11;12.80;1.00
9816;DHT22;4947;44.526;11.360;2023-03-14T06:04:38;12.80;1.00
9816;DHT22;4947;44.526;11.360;2023-03-14T06:07:06;12.90;1.00
9816;DHT22;4947;44.526;11.360;2023-03-14T06:09:33;13.00;1.00
9816;DHT22;4947;44.526;11.360;2023-03-14T06:12:03;13.10;1.00
9816;DHT22;4947;44.526;11.360;2023-03-14T06:14:30;13.20;1.00
9816;DHT22;4947;44.526;11.360;2023-03-14T06:17:04;13.30;99.90
9816;DHT22;4947;44.526;11.360;2023-03-14T06:19:32;13.50;99.90
9816;DHT22;4947;44.526;11.360;2023-03-14T06:21:59;13.70;99.90
9816;DHT22;4947;44.526;11.360;2023-03-14T06:24:27;13.90;99.90
9816;DHT22;4947;44.526;11.360;2023-03-14T06:26:54;14.00;99.90
9816;DHT22;4947;44.526;11.360;2023-03-14T06:29:23;14.10;99.90
9816;DHT22;4947;44.526;11.360;2023-03-14T06:31:51;14.30;99.90
9816;DHT22;4947;44.526;11.360;2023-03-14T06:34:18;14.30;99.90
9816;DHT22;4947;44.526;11.360;2023-03-14T06:36:45;14.40;99.90
9816;DHT22;4947;44.526;11.360;2023-03-14T06:39:13;14.40;99.90
9816;DHT22;4947;44.526;11.360;2023-03-14T06:41:41;14.40;99.90
9816;DHT22;4947;44.526;11.360;2023-03-14T06:44:08;14.40;99.90
9816;DHT22;4947;44.526;11.360;2023-03-14T06:46:38;14.50;99.90
9816;DHT22;4947;44.526;11.360;2023-03-14T06:49:06;14.50;99.90
9816;DHT22;4947;44.526;11.360;2023-03-14T06:51:33;14.60;99.90
9816;DHT22;4947;44.526;11.360;2023-03-14T06:54:01;14.60;99.90
9816;DHT22;4947;44.526;11.360;2023-03-14T06:56:28;14.70;99.90
9816;DHT22;4947;44.526;11.360;2023-03-14T06:58:56;14.80;99.90
9816;DHT22;4947;44.526;11.360;2023-03-14T07:01:26;15.00;99.90
9816;DHT22;4947;44.526;11.360;2023-03-14T07:03:56;15.00;99.90
9816;DHT22;4947;44.526;11.360;2023-03-14T07:06:24;15.30;99.90
9816;DHT22;4947;44.526;11.360;2023-03-14T07:08:51;15.30;99.90
9816;DHT22;4947;44.526;11.360;2023-03-14T07:11:22;15.50;99.90
9816;DHT22;4947;44.526;11.360;2023-03-14T07:13:50;15.50;99.90
9816;DHT22;4947;44.526;11.360;2023-03-14T07:16:18;15.50;99.90
9816;DHT22;4947;44.526;11.360;2023-03-14T07:18:45;15.50;99.90
9816;DHT22;4947;44.526;11.360;2023-03-14T07:21:15;15.50;99.90
9816;DHT22;4947;44.526;11.360;2023-03-14T07:23:43;15.40;99.90
9816;DHT22;4947;44.526;11.360;2023-03-14T07:26:10;15.40;99.90
9816;DHT22;4947;44.526;11.360;2023-03-14T07:28:38;15.30;99.90
9816;DHT22;4947;44.526;11.360;2023-03-14T07:31:06;15.30;99.90
9816;DHT22;4947;44.526;11.360;2023-03-14T07:33:34;15.30;99.90
9816;DHT22;4947;44.526;11.360;2023-03-14T07:36:03;15.60;99.90
9816;DHT22;4947;44.526;11.360;2023-03-14T07:38:32;15.90;99.90
9816;DHT22;4947;44.526;11.360;2023-03-14T07:41:03;16.00;99.90
9816;DHT22;4947;44.526;11.360;2023-03-14T07:43:31;15.90;99.90
9816;DHT22;4947;44.526;11.360;2023-03-14T07:45:59;15.70;99.90
9816;DHT22;4947;44.526;11.360;2023-03-14T07:48:26;15.50;99.90
9816;DHT22;4947;44.526;11.360;2023-03-14T07:50:55;15.30;99.90
9816;DHT22;4947;44.526;11.360;2023-03-14T07:53:23;15.20;99.90
9816;DHT22;4947;44.526;11.360;2023-03-14T07:55:52;15.30;99.90
9816;DHT22;4947;44.526;11.360;2023-03-14T07:58:20;15.80;99.90
9816;DHT22;4947;44.526;11.360;2023-03-14T08:00:49;16.00;99.90
9816;DHT22;4947;44.526;11.360;2023-03-14T08:03:17;16.10;99.90
9816;DHT22;4947;44.526;11.360;2023-03-14T08:05:47;16.50;99.90
9816;DHT22;4947;44.526;11.360;2023-03-14T08:08:15;17.00;90.50
9816;DHT22;4947;44.526;11.360;2023-03-14T08:10:43;17.60;1.00
9816;DHT22;4947;44.526;11.360;2023-03-14T08:13:13;17.60;1.00
9816;DHT22;4947;44.526;11.360;2023-03-14T08:15:41;17.60;1.00
9816;DHT22;4947;44.526;11.360;2023-03-14T08:18:09;17.90;1.00
9816;DHT22;4947;44.526;11.360;2023-03-14T08:20:36;17.30;1.00
9816;DHT22;4947;44.526;11.360;2023-03-14T08:23:04;17.10;1.00
9816;DHT22;4947;44.526;11.360;2023-03-14T08:25:31;16.80;1.00
9816;DHT22;4947;44.526;11.360;2023-03-14T08:27:58;16.70;67.40
9816;DHT22;4947;44.526;11.360;2023-03-14T08:30:27;16.50;99.90
9816;DHT22;4947;44.526;11.360;2023-03-14T08:32:56;16.50;98.50
9816;DHT22;4947;44.526;11.360;2023-03-14T08:35:25;16.30;99.90
9816;DHT22;4947;44.526;11.360;2023-03-14T08:37:52;16.20;99.90
9816;DHT22;4947;44.526;11.360;2023-03-14T08:40:20;16.10;99.90
9816;DHT22;4947;44.526;11.360;2023-03-14T08:42:50;16.10;99.90
9816;DHT22;4947;44.526;11.360;2023-03-14T08:45:18;15.90;99.90
9816;DHT22;4947;44.526;11.360;2023-03-14T08:47:47;15.80;99.90
9816;DHT22;4947;44.526;11.360;2023-03-14T08:50:15;15.90;99.90
9816;DHT22;4947;44.526;11.360;2023-03-14T08:52:43;15.90;99.90
9816;DHT22;4947;44.526;11.360;2023-03-14T08:55:11;15.90;99.90
9816;DHT22;4947;44.526;11.360;2023-03-14T08:57:38;16.00;99.90
9816;DHT22;4947;44.526;11.360;2023-03-14T09:00:09;16.10;99.90
9816;DHT22;4947;44.526;11.360;2023-03-14T09:02:39;16.00;99.90
9816;DHT22;4947;44.526;11.360;2023-03-14T09:05:10;16.20;99.90
9816;DHT22;4947;44.526;11.360;2023-03-14T09:07:38;16.50;99.90
9816;DHT22;4947;44.526;11.360;2023-03-14T09:10:06;16.60;99.90
9816;DHT22;4947;44.526;11.360;2023-03-14T09:12:34;16.80;99.90
9816;DHT22;4947;44.526;11.360;2023-03-14T09:15:01;17.20;99.90
9816;DHT22;4947;44.526;11.360;2023-03-14T09:17:29;17.80;34.40
9816;DHT22;4947;44.526;11.360;2023-03-14T09:19:56;18.10;1.00
9816;DHT22;4947;44.526;11.360;2023-03-14T09:22:25;17.90;1.00
9816;DHT22;4947;44.526;11.360;2023-03-14T09:24:53;17.30;24.40
9816;DHT22;4947;44.526;11.360;2023-03-14T09:27:20;17.60;1.00
9816;DHT22;4947;44.526;11.360;2023-03-14T09:29:48;17.60;1.00
9816;DHT22;4947;44.526;11.360;2023-03-14T09:32:16;17.20;62.00
9816;DHT22;4947;44.526;11.360;2023-03-14T09:34:43;16.90;99.90
9816;DHT22;4947;44.526;11.360;2023-03-14T09:37:14;16.90;99.90
9816;DHT22;4947;44.526;11.360;2023-03-14T09:39:43;17.00;55.60
9816;DHT22;4947;44.526;11.360;2023-03-14T09:42:15;17.50;13.50
9816;DHT22;4947;44.526;11.360;2023-03-14T09:44:51;17.80;1.00
9816;DHT22;4947;44.526;11.360;2023-03-14T09:47:20;18.10;99.90
9816;DHT22;4947;44.526;11.360;2023-03-14T09:49:49;19.00;99.90
9816;DHT22;4947;44.526;11.360;2023-03-14T09:52:21;19.70;99.90
9816;DHT22;4947;44.526;11.360;2023-03-14T09:54:52;19.70;1.00
9816;DHT22;4947;44.526;11.360;2023-03-14T09:57:24;19.80;99.90
9816;DHT22;4947;44.526;11.360;2023-03-14T09:59:53;19.90;99.90
9816;DHT22;4947;44.526;11.360;2023-03-14T10:02:22;19.70;1.00
9816;DHT22;4947;44.526;11.360;2023-03-14T10:04:52;19.40;13.30
9816;DHT22;4947;44.526;11.360;2023-03-14T10:07:25;19.40;1.00
9816;DHT22;4947;44.526;11.360;2023-03-14T10:09:56;19.30;1.00
9816;DHT22;4947;44.526;11.360;2023-03-14T10:12:31;18.90;1.00
9816;DHT22;4947;44.526;11.360;2023-03-14T10:15:03;18.70;99.90
9816;DHT22;4947;44.526;11.360;2023-03-14T10:17:40;18.80;99.90
9816;DHT22;4947;44.526;11.360;2023-03-14T10:20:26;19.00;99.90
9816;DHT22;4947;44.526;11.360;2023-03-14T10:22:58;18.90;1.00
9816;DHT22;4947;44.526;11.360;2023-03-14T10:25:29;18.70;99.90
9816;DHT22;4947;44.526;11.360;2023-03-14T10:27:57;18.80;99.90
9816;DHT22;4947;44.526;11.360;2023-03-14T10:30:33;18.80;1.00
9816;DHT22;4947;44.526;11.360;2023-03-14T10:33:10;18.70;99.90
9816;DHT22;4947;44.526;11.360;2023-03-14T10:35:38;18.60;99.90
9816;DHT22;4947;44.526;11.360;2023-03-14T10:38:13;18.40;1.00
9816;DHT22;4947;44.526;11.360;2023-03-14T10:40:47;18.70;99.90
9816;DHT22;4947;44.526;11.360;2023-03-14T10:43:17;19.00;99.90
9816;DHT22;4947;44.526;11.360;2023-03-14T10:45:51;18.60;99.90
9816;DHT22;4947;44.526;11.360;2023-03-14T10:48:28;18.80;99.90
9816;DHT22;4947;44.526;11.360;2023-03-14T10:50:58;19.10;99.90
9816;DHT22;4947;44.526;11.360;2023-03-14T10:53:34;18.90;99.90
9816;DHT22;4947;44.526;11.360;2023-03-14T10:56:11;19.00;99.90
9816;DHT22;4947;44.526;11.360;2023-03-14T10:58:41;19.10;99.90
9816;DHT22;4947;44.526;11.360;2023-03-14T11:01:27;19.30;99.90
9816;DHT22;4947;44.526;11.360;2023-03-14T11:04:01;19.50;99.90
9816;DHT22;4947;44.526;11.360;2023-03-14T11:06:38;19.70;99.90
9816;DHT22;4947;44.526;11.360;2023-03-14T11:09:12;19.80;1.50
9816;DHT22;4947;44.526;11.360;2023-03-14T11:11:47;19.60;1.00
9816;DHT22;4947;44.526;11.360;2023-03-14T11:14:23;19.70;99.90
9816;DHT22;4947;44.526;11.360;2023-03-14T11:17:00;19.30;1.00
9816;DHT22;4947;44.526;11.360;2023-03-14T11:19:52;18.80;99.90
9816;DHT22;4947;44.526;11.360;2023-03-14T11:22:29;18.50;1.00
9816;DHT22;4947;44.526;11.360;2023-03-14T11:25:12;18.50;1.00
9816;DHT22;4947;44.526;11.360;2023-03-14T11:27:46;18.50;1.00
9816;DHT22;4947;44.526;11.360;2023-03-14T11:30:25;18.30;99.90
9816;DHT22;4947;44.526;11.360;2023-03-14T11:32:59;18.30;1.00
9816;DHT22;4947;44.526;11.360;2023-03-14T11:35:32;18.20;1.00
9816;DHT22;4947;44.526;11.360;2023-03-14T11:38:10;18.10;1.00
9816;DHT22;4947;44.526;11.360;2023-03-14T11:40:39;17.80;1.00
9816;DHT22;4947;44.526;11.360;2023-03-14T11:43:14;17.80;1.00
9816;DHT22;4947;44.526;11.360;2023-03-14T11:45:43;17.70;1.00
9816;DHT22;4947;44.526;11.360;2023-03-14T11:48:18;17.50;1.00
9816;DHT22;4947;44.526;11.360;2023-03-14T11:50:50;17.60;1.00
9816;DHT22;4947;44.526;11.360;2023-03-14T11:53:22;17.60;99.90
9816;DHT22;4947;44.526;11.360;2023-03-14T11:55:53;18.00;14.50
9816;DHT22;4947;44.526;11.360;2023-03-14T11:58:28;18.30;1.00
9816;DHT22;4947;44.526;11.360;2023-03-14T12:00:58;18.30;1.00
9816;DHT22;4947;44.526;11.360;2023-03-14T12:03:35;18.60;99.90
9816;DHT22;4947;44.526;11.360;2023-03-14T12:06:13;18.80;1.00
9816;DHT22;4947;44.526;11.360;2023-03-14T12:08:45;19.00;99.90
9816;DHT22;4947;44.526;11.360;2023-03-14T12:11:19;19.10;99.90
9816;DHT22;4947;44.526;11.360;2023-03-14T12:13:51;19.00;99.90
9816;DHT22;4947;44.526;11.360;2023-03-14T12:16:33;18.90;99.90
9816;DHT22;4947;44.526;11.360;2023-03-14T12:19:27;18.80;99.90
9816;DHT22;4947;44.526;11.360;2023-03-14T12:21:58;18.80;99.90
9816;DHT22;4947;44.526;11.360;2023-03-14T12:24:29;18.80;99.90
9816;DHT22;4947;44.526;11.360;2023-03-14T12:26:58;18.70;99.90
9816;DHT22;4947;44.526;11.360;2023-03-14T12:29:28;18.80;99.90
9816;DHT22;4947;44.526;11.360;2023-03-14T12:32:22;18.80;99.90
9816;DHT22;4947;44.526;11.360;2023-03-14T12:34:50;18.70;99.90
9816;DHT22;4947;44.526;11.360;2023-03-14T12:37:29;18.50;1.00
9816;DHT22;4947;44.526;11.360;2023-03-14T12:40:19;18.60;99.90
9816;DHT22;4947;44.526;11.360;2023-03-14T12:42:57;18.60;1.00
9816;DHT22;4947;44.526;11.360;2023-03-14T12:45:30;18.60;1.00
9816;DHT22;4947;44.526;11.360;2023-03-14T12:48:14;18.30;96.30
9816;DHT22;4947;44.526;11.360;2023-03-14T12:50:54;18.30;1.00
9816;DHT22;4947;44.526;11.360;2023-03-14T12:53:38;18.30;1.00
9816;DHT22;4947;44.526;11.360;2023-03-14T12:56:20;18.30;96.00
9816;DHT22;4947;44.526;11.360;2023-03-14T12:59:01;18.30;1.00
9816;DHT22;4947;44.526;11.360;2023-03-14T13:01:35;18.20;99.90
9816;DHT22;4947;44.526;11.360;2023-03-14T13:04:10;18.30;99.90
9816;DHT22;4947;44.526;11.360;2023-03-14T13:06:50;18.40;1.00
9816;DHT22;4947;44.526;11.360;2023-03-14T13:12:29;18.30;99.90
9816;DHT22;4947;44.526;11.360;2023-03-14T13:15:11;18.40;1.00
9816;DHT22;4947;44.526;11.360;2023-03-14T13:17:42;18.50;99.90
9816;DHT22;4947;44.526;11.360;2023-03-14T13:20:15;18.70;99.90
9816;DHT22;4947;44.526;11.360;2023-03-14T13:22:47;18.70;99.90
9816;DHT22;4947;44.526;11.360;2023-03-14T13:25:15;18.50;1.00
9816;DHT22;4947;44.526;11.360;2023-03-14T13:27:44;18.40;99.90
9816;DHT22;4947;44.526;11.360;2023-03-14T13:30:18;18.40;27.40
9816;DHT22;4947;44.526;11.360;2023-03-14T13:32:48;18.30;99.90
9816;DHT22;4947;44.526;11.360;2023-03-14T13:35:18;18.30;1.00
9816;DHT22;4947;44.526;11.360;2023-03-14T13:37:51;18.30;1.00
9816;DHT22;4947;44.526;11.360;2023-03-14T13:40:23;18.40;99.90
9816;DHT22;4947;44.526;11.360;2023-03-14T13:43:01;18.30;87.60
9816;DHT22;4947;44.526;11.360;2023-03-14T13:45:28;18.20;75.20
9816;DHT22;4947;44.526;11.360;2023-03-14T13:47:58;18.10;99.90
9816;DHT22;4947;44.526;11.360;2023-03-14T13:50:25;17.90;99.90
9816;DHT22;4947;44.526;11.360;2023-03-14T13:52:57;17.80;99.90
9816;DHT22;4947;44.526;11.360;2023-03-14T13:55:24;17.80;99.90
9816;DHT22;4947;44.526;11.360;2023-03-14T13:57:54;17.80;1.00
9816;DHT22;4947;44.526;11.360;2023-03-14T14:00:23;17.70;1.00
9816;DHT22;4947;44.526;11.360;2023-03-14T14:02:53;17.80;1.00
9816;DHT22;4947;44.526;11.360;2023-03-14T14:05:25;17.70;1.00
9816;DHT22;4947;44.526;11.360;2023-03-14T14:07:53;17.70;1.00
9816;DHT22;4947;44.526;11.360;2023-03-14T14:10:21;17.60;1.00
9816;DHT22;4947;44.526;11.360;2023-03-14T14:12:52;17.60;22.10
9816;DHT22;4947;44.526;11.360;2023-03-14T14:15:22;17.60;46.50
9816;DHT22;4947;44.526;11.360;2023-03-14T14:17:56;17.60;1.00
9816;DHT22;4947;44.526;11.360;2023-03-14T14:20:29;17.60;1.00
9816;DHT22;4947;44.526;11.360;2023-03-14T14:23:01;17.70;2.20
9816;DHT22;4947;44.526;11.360;2023-03-14T14:25:30;17.80;1.00
9816;DHT22;4947;44.526;11.360;2023-03-14T14:27:58;17.80;1.00
9816;DHT22;4947;44.526;11.360;2023-03-14T14:30:28;17.60;1.00
9816;DHT22;4947;44.526;11.360;2023-03-14T14:33:12;17.50;35.50
9816;DHT22;4947;44.526;11.360;2023-03-14T14:35:52;17.60;48.40
9816;DHT22;4947;44.526;11.360;2023-03-14T14:38:20;17.60;99.90
9816;DHT22;4947;44.526;11.360;2023-03-14T14:40:50;17.60;61.90
9816;DHT22;4947;44.526;11.360;2023-03-14T14:43:20;17.80;59.40
9816;DHT22;4947;44.526;11.360;2023-03-14T14:45:50;17.80;1.00
9816;DHT22;4947;44.526;11.360;2023-03-14T14:48:21;17.80;1.00
9816;DHT22;4947;44.526;11.360;2023-03-14T14:50:55;17.90;1.00
9816;DHT22;4947;44.526;11.360;2023-03-14T14:53:27;17.80;1.00
9816;DHT22;4947;44.526;11.360;2023-03-14T14:55:57;17.70;1.00
9816;DHT22;4947;44.526;11.360;2023-03-14T14:58:26;17.70;1.00
9816;DHT22;4947;44.526;11.360;2023-03-14T15:00:57;17.60;1.00
9816;DHT22;4947;44.526;11.360;2023-03-14T15:03:31;17.70;1.00
9816;DHT22;4947;44.526;11.360;2023-03-14T15:06:00;17.80;99.90
9816;DHT22;4947;44.526;11.360;2023-03-14T15:08:28;17.60;99.90
9816;DHT22;4947;44.526;11.360;2023-03-14T15:10:56;17.60;99.90
9816;DHT22;4947;44.526;11.360;2023-03-14T15:13:24;17.60;96.80
9816;DHT22;4947;44.526;11.360;2023-03-14T15:15:52;17.60;99.90
9816;DHT22;4947;44.526;11.360;2023-03-14T15:18:22;17.70;99.90
9816;DHT22;4947;44.526;11.360;2023-03-14T15:20:49;17.80;99.90
9816;DHT22;4947;44.526;11.360;2023-03-14T15:23:27;17.90;1.00
9816;DHT22;4947;44.526;11.360;2023-03-14T15:25:54;18.00;99.90
9816;DHT22;4947;44.526;11.360;2023-03-14T15:28:23;18.10;99.90
9816;DHT22;4947;44.526;11.360;2023-03-14T15:30:52;18.20;1.00
9816;DHT22;4947;44.526;11.360;2023-03-14T15:33:20;18.30;1.00
9816;DHT22;4947;44.526;11.360;2023-03-14T15:35:48;18.10;99.90
9816;DHT22;4947;44.526;11.360;2023-03-14T15:38:18;18.10;99.90
9816;DHT22;4947;44.526;11.360;2023-03-14T15:40:48;18.10;1.00
9816;DHT22;4947;44.526;11.360;2023-03-14T15:43:16;18.00;82.60
9816;DHT22;4947;44.526;11.360;2023-03-14T15:45:44;17.90;1.00
9816;DHT22;4947;44.526;11.360;2023-03-14T15:48:14;17.70;99.90
9816;DHT22;4947;44.526;11.360;2023-03-14T15:50:43;17.60;1.00
9816;DHT22;4947;44.526;11.360;2023-03-14T15:53:10;17.60;99.90
9816;DHT22;4947;44.526;11.360;2023-03-14T15:55:38;17.40;1.00
9816;DHT22;4947;44.526;11.360;2023-03-14T15:58:10;17.40;99.90
9816;DHT22;4947;44.526;11.360;2023-03-14T16:00:42;17.30;99.90
9816;DHT22;4947;44.526;11.360;2023-03-14T16:03:09;17.30;1.00
9816;DHT22;4947;44.526;11.360;2023-03-14T16:05:37;17.20;99.90
9816;DHT22;4947;44.526;11.360;2023-03-14T16:08:05;17.10;99.90
9816;DHT22;4947;44.526;11.360;2023-03-14T16:10:33;17.10;1.00
9816;DHT22;4947;44.526;11.360;2023-03-14T16:13:05;17.00;99.90
9816;DHT22;4947;44.526;11.360;2023-03-14T16:15:34;17.00;99.90
9816;DHT22;4947;44.526;11.360;2023-03-14T16:18:02;16.90;99.90